Heron, Montana
Current Conditions -  °F | °C
As of 6:35 AM on Saturday 25 Oct 2014 (Local Time) from KSZT Reporting Station
Clear Clear  
Wind Chill: 37°   Ceiling: Unl
Heat Index: 45°   Visibility: 10mi
Dew Point: 39°   Wind: 17mph
Humidity: 81%   Direction: 30°NNE
Pressure: 29.84"   Gusts: 22mph
Location:  48.06°N, 115.96°W
Report Text: KSZT 251235Z AUTO 03015G19KT 10SM CLR 07/04 A2984 RMK AO2
Loading
Personal Weather Stations






























Interactive Weather Map
Tropical Storm Tracking
New forecast layout! Learn more

10-Day Weather Forecast

Advertisements
Track Severe Weather on mobile